createdAt,value
2022-08-22T00:00:06.813Z,0.00
2022-08-22T00:01:08.016Z,0.00
2022-08-22T00:02:08.994Z,0.00
2022-08-22T00:02:48.150Z,0.00
2022-08-22T00:02:48.679Z,0.00
2022-08-22T00:02:49.791Z,0.00
2022-08-22T00:02:53.826Z,0.00
2022-08-22T00:02:55.897Z,0.00
2022-08-22T00:03:00.025Z,0.00
2022-08-22T00:03:02.037Z,0.00
2022-08-22T00:03:04.340Z,0.00
2022-08-22T00:03:07.041Z,0.00
2022-08-22T00:03:22.761Z,0.00
2022-08-22T00:04:09.896Z,0.00
2022-08-22T00:05:07.735Z,0.00
2022-08-22T00:06:08.389Z,0.00
2022-08-22T00:07:08.036Z,0.00
2022-08-22T00:08:08.167Z,0.00
2022-08-22T00:09:08.416Z,0.00
2022-08-22T00:10:08.901Z,0.00
2022-08-22T00:11:08.649Z,0.00
2022-08-22T00:12:08.808Z,0.00
2022-08-22T00:13:08.966Z,0.00
2022-08-22T00:14:09.887Z,0.00
2022-08-22T00:15:16.368Z,0.00
2022-08-22T00:16:10.395Z,0.00
2022-08-22T00:17:09.542Z,0.00
2022-08-22T00:18:10.392Z,0.00
2022-08-22T00:19:43.313Z,0.00
2022-08-22T00:20:10.444Z,0.00
2022-08-22T00:21:10.926Z,0.00
2022-08-22T00:22:10.465Z,0.00
2022-08-22T00:23:10.616Z,0.00
2022-08-22T00:24:11.436Z,0.00
2022-08-22T00:25:25.431Z,0.00
2022-08-22T00:26:12.175Z,0.00
2022-08-22T00:27:11.315Z,0.00
2022-08-22T00:28:11.506Z,0.00
2022-08-22T00:29:12.431Z,0.00
2022-08-22T00:30:11.807Z,0.00
2022-08-22T00:31:12.962Z,0.00
2022-08-22T00:32:12.196Z,0.00
2022-08-22T00:33:12.354Z,0.00
2022-08-22T00:34:13.436Z,0.00
2022-08-22T00:35:12.699Z,0.00
2022-08-22T00:36:12.863Z,0.00
2022-08-22T00:37:13.017Z,0.00
2022-08-22T00:38:13.181Z,0.00
2022-08-22T00:39:13.342Z,0.00
2022-08-22T00:40:13.566Z,0.00
2022-08-22T00:41:13.680Z,0.00
2022-08-22T00:42:13.838Z,0.00
2022-08-22T00:43:14.941Z,0.00
2022-08-22T00:44:14.197Z,0.00
2022-08-22T00:45:14.361Z,0.00
2022-08-22T00:46:15.438Z,0.00
2022-08-22T00:47:14.687Z,0.00
2022-08-22T00:48:14.842Z,0.00
2022-08-22T00:49:47.900Z,0.00
2022-08-22T00:50:15.136Z,0.00
2022-08-22T00:51:15.279Z,0.00
2022-08-22T00:52:15.437Z,0.00
2022-08-22T00:53:15.628Z,0.00
2022-08-22T00:54:17.619Z,0.00
2022-08-22T00:55:52.404Z,0.00
2022-08-22T00:56:16.201Z,0.00
2022-08-22T00:57:16.349Z,0.00
2022-08-22T00:58:16.498Z,0.00
2022-08-22T00:59:23.268Z,0.00
2022-08-22T01:00:17.786Z,0.00
2022-08-22T01:01:17.093Z,0.00
2022-08-22T01:02:18.009Z,0.00
2022-08-22T01:03:18.038Z,0.00
2022-08-22T01:04:17.425Z,0.00
2022-08-22T01:05:18.529Z,0.00
2022-08-22T01:06:17.811Z,0.00
2022-08-22T01:07:18.520Z,0.00
2022-08-22T01:08:19.013Z,0.00
2022-08-22T01:09:18.282Z,0.00
2022-08-22T01:10:18.418Z,0.00
2022-08-22T01:11:18.583Z,0.00
2022-08-22T01:12:18.768Z,0.00
2022-08-22T01:13:19.519Z,0.00
2022-08-22T01:14:19.148Z,0.00
2022-08-22T01:15:19.332Z,0.00
2022-08-22T01:16:20.016Z,0.00
2022-08-22T01:17:19.655Z,0.00
2022-08-22T01:18:19.793Z,0.00
2022-08-22T01:19:20.515Z,0.00
2022-08-22T01:20:20.169Z,0.00
2022-08-22T01:21:24.091Z,0.00
2022-08-22T01:22:20.478Z,0.00
2022-08-22T01:23:20.629Z,0.00
2022-08-22T01:24:21.518Z,0.00
2022-08-22T01:25:25.861Z,0.00
2022-08-22T01:26:22.147Z,0.00
2022-08-22T01:27:21.333Z,0.00
2022-08-22T01:28:22.851Z,0.00
2022-08-22T01:29:28.198Z,0.00
2022-08-22T01:30:23.903Z,0.00
2022-08-22T01:31:22.009Z,0.00
2022-08-22T01:32:23.019Z,0.00
2022-08-22T01:33:22.366Z,0.00
2022-08-22T01:34:23.019Z,0.00
2022-08-22T01:35:22.653Z,0.00
2022-08-22T01:36:22.793Z,0.00
2022-08-22T01:37:22.919Z,0.00
2022-08-22T01:38:23.057Z,0.00
2022-08-22T01:39:23.234Z,0.00
2022-08-22T01:40:23.878Z,0.00
2022-08-22T01:41:24.524Z,0.00
2022-08-22T01:42:24.535Z,0.00
2022-08-22T01:43:58.677Z,0.00
2022-08-22T01:44:25.150Z,0.00
2022-08-22T01:45:24.241Z,0.00
2022-08-22T01:46:25.028Z,0.00
2022-08-22T01:47:24.566Z,0.00
2022-08-22T01:48:24.704Z,0.00
2022-08-22T01:49:25.524Z,0.00
2022-08-22T01:50:58.950Z,0.00
2022-08-22T01:51:25.187Z,0.00
2022-08-22T01:52:25.336Z,0.00
2022-08-22T01:53:25.467Z,0.00
2022-08-22T01:54:26.563Z,0.00
2022-08-22T01:55:26.068Z,0.00
2022-08-22T01:56:25.980Z,0.00
2022-08-22T01:57:26.168Z,0.00
2022-08-22T01:58:26.332Z,0.00
2022-08-22T01:59:33.692Z,0.00
2022-08-22T02:00:34.743Z,0.00
2022-08-22T02:01:28.708Z,0.00
2022-08-22T02:02:26.984Z,0.00
2022-08-22T02:03:27.102Z,0.00
2022-08-22T02:04:27.261Z,0.00
2022-08-22T02:05:28.078Z,0.00
2022-08-22T02:06:27.562Z,0.00
2022-08-22T02:07:31.925Z,0.00
2022-08-22T02:08:28.556Z,0.00
2022-08-22T02:09:28.569Z,0.00
2022-08-22T02:10:28.336Z,0.00
2022-08-22T02:11:29.061Z,0.00
2022-08-22T02:12:28.686Z,0.00
2022-08-22T02:13:28.819Z,0.00
2022-08-22T02:14:29.054Z,0.00
2022-08-22T02:15:29.218Z,0.00
2022-08-22T02:16:30.062Z,0.00
2022-08-22T02:17:29.578Z,0.00
2022-08-22T02:18:29.722Z,0.00
2022-08-22T02:19:29.874Z,0.00
2022-08-22T02:20:30.582Z,0.00
2022-08-22T02:21:31.065Z,0.00
2022-08-22T02:22:30.452Z,0.00
2022-08-22T02:23:30.591Z,0.00
2022-08-22T02:24:30.750Z,0.00
2022-08-22T02:25:30.907Z,0.00
2022-08-22T02:26:31.568Z,0.00
2022-08-22T02:27:31.733Z,0.00
2022-08-22T02:28:31.408Z,0.00
2022-08-22T02:29:31.561Z,0.00
2022-08-22T02:30:31.726Z,0.00
2022-08-22T02:31:31.862Z,0.00
2022-08-22T02:32:32.027Z,0.00
2022-08-22T02:33:32.158Z,0.00
2022-08-22T02:34:32.286Z,0.00
2022-08-22T02:35:32.430Z,0.00
2022-08-22T02:36:32.567Z,0.00
2022-08-22T02:37:32.722Z,0.00
2022-08-22T02:38:33.566Z,0.00
2022-08-22T02:39:33.057Z,0.00
2022-08-22T02:40:33.196Z,0.00
2022-08-22T02:41:33.579Z,0.00
2022-08-22T02:42:33.472Z,0.00
2022-08-22T02:43:33.601Z,0.00
2022-08-22T02:44:34.571Z,0.00
2022-08-22T02:45:34.569Z,0.00
2022-08-22T02:46:34.080Z,0.00
2022-08-22T02:47:34.236Z,0.00
2022-08-22T02:48:35.071Z,0.00
2022-08-22T02:49:34.551Z,0.00
2022-08-22T02:50:35.783Z,0.00
2022-08-22T02:52:08.426Z,0.00
2022-08-22T02:52:35.144Z,0.00
2022-08-22T02:53:36.303Z,0.00
2022-08-22T02:54:35.431Z,0.00
2022-08-22T02:55:35.570Z,0.00
2022-08-22T02:56:36.115Z,0.00
2022-08-22T02:57:39.613Z,0.00
2022-08-22T02:58:36.006Z,0.00
2022-08-22T02:59:36.150Z,0.00
2022-08-22T03:00:36.306Z,0.00
2022-08-22T03:01:36.624Z,0.00
2022-08-22T03:02:37.613Z,0.00
2022-08-22T03:03:36.845Z,0.00
2022-08-22T03:04:36.986Z,0.00
2022-08-22T03:05:37.120Z,0.00
2022-08-22T03:06:37.618Z,0.00
2022-08-22T03:07:37.473Z,0.00
2022-08-22T03:08:47.348Z,0.00
2022-08-22T03:09:38.968Z,0.00
2022-08-22T03:10:38.609Z,0.00
2022-08-22T03:11:38.254Z,0.00
2022-08-22T03:12:38.430Z,0.00
2022-08-22T03:13:38.567Z,0.00
2022-08-22T03:14:38.735Z,0.00
2022-08-22T03:15:38.870Z,0.00
2022-08-22T03:16:39.617Z,0.00
2022-08-22T03:17:39.237Z,0.00
2022-08-22T03:18:39.383Z,0.00
2022-08-22T03:19:40.606Z,0.00
2022-08-22T03:20:41.131Z,0.00
2022-08-22T03:21:39.973Z,0.00
2022-08-22T03:22:41.114Z,0.00
2022-08-22T03:23:40.397Z,0.00
2022-08-22T03:24:40.624Z,0.00
2022-08-22T03:25:40.753Z,0.00
2022-08-22T03:26:40.920Z,0.00
2022-08-22T03:27:41.045Z,0.00
2022-08-22T03:28:59.227Z,0.00
2022-08-22T03:29:42.376Z,0.00
2022-08-22T03:30:41.628Z,0.00
2022-08-22T03:31:42.620Z,0.00
2022-08-22T03:32:41.958Z,0.00
2022-08-22T03:33:42.194Z,0.00
2022-08-22T03:34:42.464Z,0.00
2022-08-22T03:35:42.626Z,0.00
2022-08-22T03:36:42.742Z,0.00
2022-08-22T03:37:42.976Z,0.00
2022-08-22T03:38:43.617Z,0.00
2022-08-22T03:39:44.163Z,0.00
2022-08-22T03:40:43.473Z,0.00
2022-08-22T03:41:44.127Z,0.00
2022-08-22T03:42:44.618Z,0.00
2022-08-22T03:43:44.623Z,0.00
2022-08-22T03:44:45.127Z,0.00
2022-08-22T03:45:44.267Z,0.00
2022-08-22T03:46:44.455Z,0.00
2022-08-22T03:47:44.607Z,0.00
2022-08-22T03:48:44.751Z,0.00
2022-08-22T03:49:44.886Z,0.00
2022-08-22T03:50:45.048Z,0.00
2022-08-22T03:51:45.242Z,0.00
2022-08-22T03:53:18.999Z,0.00
2022-08-22T03:53:45.497Z,0.00
2022-08-22T03:54:45.633Z,0.00
2022-08-22T03:55:45.798Z,0.00
2022-08-22T03:56:45.947Z,4.00
2022-08-22T03:57:46.189Z,4.00
2022-08-22T03:58:46.356Z,0.00
2022-08-22T03:59:46.495Z,0.00
2022-08-22T04:00:46.726Z,4.00
2022-08-22T04:01:47.902Z,4.00
2022-08-22T04:02:47.667Z,4.00
2022-08-22T04:03:47.186Z,4.00
2022-08-22T04:04:47.675Z,4.00
2022-08-22T04:05:47.549Z,8.00
2022-08-22T04:06:48.672Z,8.00
2022-08-22T04:07:47.826Z,8.00
2022-08-22T04:08:48.003Z,8.00
2022-08-22T04:09:48.150Z,12.00
2022-08-22T04:10:49.164Z,12.00
2022-08-22T04:11:48.527Z,16.00
2022-08-22T04:12:48.692Z,16.00
2022-08-22T04:13:48.840Z,20.00
2022-08-22T04:14:48.986Z,20.00
2022-08-22T04:15:49.144Z,28.00
2022-08-22T04:16:49.283Z,28.00
2022-08-22T04:17:49.467Z,32.00
2022-08-22T04:18:49.630Z,36.00
2022-08-22T04:19:49.807Z,40.00
2022-08-22T04:20:49.942Z,44.00
2022-08-22T04:21:50.083Z,52.00
2022-08-22T04:23:23.650Z,56.00
2022-08-22T04:23:50.364Z,60.00
2022-08-22T04:24:52.200Z,68.00
2022-08-22T04:25:50.708Z,76.00
2022-08-22T04:26:50.836Z,80.00
2022-08-22T04:27:50.998Z,88.00
2022-08-22T04:28:51.207Z,96.00
2022-08-22T04:29:51.381Z,104.00
2022-08-22T04:30:51.722Z,116.00
2022-08-22T04:31:51.732Z,124.00
2022-08-22T04:32:51.884Z,136.00
2022-08-22T04:33:52.711Z,144.00
2022-08-22T04:34:52.200Z,156.00
2022-08-22T04:35:52.719Z,168.00
2022-08-22T04:36:52.482Z,176.00
2022-08-22T04:37:52.700Z,192.00
2022-08-22T04:38:52.777Z,204.00
2022-08-22T04:39:52.994Z,216.00
2022-08-22T04:40:53.066Z,232.00
2022-08-22T04:41:53.212Z,248.00
2022-08-22T04:42:53.364Z,264.00
2022-08-22T04:43:53.535Z,276.00
2022-08-22T04:44:53.675Z,296.00
2022-08-22T04:45:53.872Z,312.00
2022-08-22T04:46:54.028Z,332.00
2022-08-22T04:47:54.436Z,352.00
2022-08-22T04:48:54.393Z,364.00
2022-08-22T04:49:54.578Z,380.00
2022-08-22T04:50:54.761Z,396.00
2022-08-22T04:51:56.722Z,416.00
2022-08-22T04:52:55.715Z,436.00
2022-08-22T04:54:28.163Z,456.00
2022-08-22T04:54:56.250Z,476.00
2022-08-22T04:55:55.776Z,496.00
2022-08-22T04:56:56.751Z,516.00
2022-08-22T04:57:56.753Z,536.00
2022-08-22T04:58:56.759Z,552.00
2022-08-22T04:59:56.269Z,576.00
2022-08-22T05:00:56.381Z,596.00
2022-08-22T05:01:56.591Z,616.00
2022-08-22T05:02:57.627Z,640.00
2022-08-22T05:03:56.850Z,664.00
2022-08-22T05:04:57.753Z,684.00
2022-08-22T05:05:57.747Z,708.00
2022-08-22T05:06:58.765Z,732.00
2022-08-22T05:07:57.526Z,752.00
2022-08-22T05:08:57.731Z,776.00
2022-08-22T05:09:57.845Z,796.00
2022-08-22T05:10:58.775Z,820.00
2022-08-22T05:11:58.280Z,840.00
2022-08-22T05:12:58.428Z,860.00
2022-08-22T05:13:58.564Z,884.00
2022-08-22T05:14:58.709Z,916.00
2022-08-22T05:15:58.921Z,944.00
2022-08-22T05:16:59.759Z,976.00
2022-08-22T05:17:59.479Z,1004.00
2022-08-22T05:18:59.438Z,1040.00
2022-08-22T05:19:59.771Z,1068.00
2022-08-22T05:20:59.818Z,1104.00
2022-08-22T05:21:59.978Z,1156.00
2022-08-22T05:23:00.122Z,1188.00
2022-08-22T05:24:01.246Z,1200.00
2022-08-22T05:25:01.485Z,1220.00
2022-08-22T05:26:00.771Z,1240.00
2022-08-22T05:27:01.301Z,1264.00
2022-08-22T05:28:01.287Z,1292.00
2022-08-22T05:29:01.194Z,1312.00
2022-08-22T05:30:03.254Z,1336.00
2022-08-22T05:31:02.784Z,1356.00
2022-08-22T05:32:01.640Z,1372.00
2022-08-22T05:33:01.822Z,1400.00
2022-08-22T05:34:01.967Z,1420.00
2022-08-22T05:35:02.757Z,1444.00
2022-08-22T05:36:02.255Z,1468.00
2022-08-22T05:37:03.393Z,1500.00
2022-08-22T05:38:02.611Z,1540.00
2022-08-22T05:39:02.769Z,1556.00
2022-08-22T05:40:02.930Z,1680.00
2022-08-22T05:41:03.079Z,1960.00
2022-08-22T05:42:03.761Z,1768.00
2022-08-22T05:43:03.418Z,2152.00
2022-08-22T05:44:04.268Z,2364.00
2022-08-22T05:45:03.749Z,1748.00
2022-08-22T05:46:03.882Z,1828.00
2022-08-22T05:47:04.016Z,1804.00
2022-08-22T05:48:04.282Z,1864.00
2022-08-22T05:49:04.295Z,1872.00
2022-08-22T05:50:05.270Z,1908.00
2022-08-22T05:51:05.271Z,1956.00
2022-08-22T05:52:04.882Z,2284.00
2022-08-22T05:53:05.147Z,2316.00
2022-08-22T05:54:05.288Z,2108.00
2022-08-22T05:55:05.468Z,2116.00
2022-08-22T05:56:05.627Z,2168.00
2022-08-22T05:57:07.903Z,2228.00
2022-08-22T05:58:07.785Z,2408.00
2022-08-22T05:59:08.590Z,3592.00
2022-08-22T06:00:06.282Z,6184.00
2022-08-22T06:01:07.267Z,4472.00
2022-08-22T06:02:07.719Z,3952.00
2022-08-22T06:03:06.809Z,4364.00
2022-08-22T06:04:07.773Z,7848.00
2022-08-22T06:05:11.763Z,16928.00
2022-08-22T06:06:08.384Z,13780.00
2022-08-22T06:07:07.778Z,6976.00
2022-08-22T06:08:07.692Z,9624.00
2022-08-22T06:09:07.851Z,13484.00
2022-08-22T06:10:08.028Z,6772.00
2022-08-22T06:11:08.772Z,3020.00
2022-08-22T06:12:11.619Z,3000.00
2022-08-22T06:13:11.427Z,2904.00
2022-08-22T06:14:08.832Z,2812.00
2022-08-22T06:15:11.839Z,2816.00
2022-08-22T06:16:09.260Z,2820.00
2022-08-22T06:17:10.276Z,2860.00
2022-08-22T06:18:09.537Z,2896.00
2022-08-22T06:19:19.091Z,2844.00
2022-08-22T06:20:11.284Z,2856.00
2022-08-22T06:21:10.141Z,2852.00
2022-08-22T06:22:10.286Z,2980.00
2022-08-22T06:23:10.470Z,3100.00
2022-08-22T06:24:11.277Z,3180.00
2022-08-22T06:25:43.714Z,3120.00
2022-08-22T06:26:20.489Z,3024.00
2022-08-22T06:27:12.191Z,3076.00
2022-08-22T06:28:12.304Z,3396.00
2022-08-22T06:29:11.536Z,3332.00
2022-08-22T06:30:11.655Z,3400.00
2022-08-22T06:31:12.943Z,3608.00
2022-08-22T06:32:12.065Z,3244.00
2022-08-22T06:33:12.587Z,3528.00
2022-08-22T06:34:12.330Z,3508.00
2022-08-22T06:35:12.504Z,3384.00
2022-08-22T06:36:12.674Z,3492.00
2022-08-22T06:37:12.829Z,3624.00
2022-08-22T06:38:12.970Z,4364.00
2022-08-22T06:39:13.126Z,4200.00
2022-08-22T06:40:13.339Z,4800.00
2022-08-22T06:41:13.823Z,3512.00
2022-08-22T06:42:16.703Z,3488.00
2022-08-22T06:43:14.836Z,6708.00
2022-08-22T06:44:14.918Z,4104.00
2022-08-22T06:45:14.171Z,4816.00
2022-08-22T06:46:14.367Z,4484.00
2022-08-22T06:47:14.864Z,4340.00
2022-08-22T06:48:15.313Z,4000.00
2022-08-22T06:49:14.821Z,4604.00
2022-08-22T06:50:14.984Z,10972.00
2022-08-22T06:51:15.334Z,5696.00
2022-08-22T06:52:15.824Z,4736.00
2022-08-22T06:53:16.317Z,3648.00
2022-08-22T06:54:16.321Z,11120.00
2022-08-22T06:55:15.838Z,6868.00
2022-08-22T06:56:16.822Z,3976.00
2022-08-22T06:57:16.227Z,4328.00
2022-08-22T06:58:17.317Z,4208.00
2022-08-22T06:59:16.559Z,4220.00
2022-08-22T07:00:17.316Z,4172.00
2022-08-22T07:01:16.922Z,4144.00
2022-08-22T07:02:17.122Z,3740.00
2022-08-22T07:03:17.835Z,3796.00
2022-08-22T07:04:17.482Z,3960.00
2022-08-22T07:05:17.660Z,4608.00
2022-08-22T07:06:17.809Z,4340.00
2022-08-22T07:07:17.957Z,4760.00
2022-08-22T07:08:18.107Z,4860.00
2022-08-22T07:09:18.328Z,5144.00
2022-08-22T07:10:18.483Z,5240.00
2022-08-22T07:11:18.609Z,5444.00
2022-08-22T07:12:18.758Z,4960.00
2022-08-22T07:13:19.828Z,4928.00
2022-08-22T07:14:19.336Z,5088.00
2022-08-22T07:15:19.222Z,5072.00
2022-08-22T07:16:19.374Z,4944.00
2022-08-22T07:17:19.553Z,4952.00
2022-08-22T07:18:19.726Z,5008.00
2022-08-22T07:19:19.908Z,5068.00
2022-08-22T07:20:20.090Z,5040.00
2022-08-22T07:21:20.231Z,5136.00
2022-08-22T07:22:20.461Z,5056.00
2022-08-22T07:23:20.626Z,5124.00
2022-08-22T07:24:21.327Z,5220.00
2022-08-22T07:25:20.968Z,5312.00
2022-08-22T07:26:21.124Z,5316.00
2022-08-22T07:27:21.317Z,5292.00
2022-08-22T07:28:21.473Z,5176.00
2022-08-22T07:29:23.351Z,4984.00
2022-08-22T07:30:27.820Z,5228.00
2022-08-22T07:31:22.955Z,5616.00
2022-08-22T07:32:22.214Z,5988.00
2022-08-22T07:33:26.820Z,6364.00
2022-08-22T07:34:22.606Z,6316.00
2022-08-22T07:35:22.774Z,5252.00
2022-08-22T07:36:23.285Z,6272.00
2022-08-22T07:37:24.120Z,6128.00
2022-08-22T07:38:23.306Z,5612.00
2022-08-22T07:39:23.451Z,7272.00
2022-08-22T07:40:23.645Z,9560.00
2022-08-22T07:41:24.328Z,12176.00
2022-08-22T07:42:27.466Z,7792.00
2022-08-22T07:43:24.182Z,6464.00
2022-08-22T07:44:24.354Z,15904.00
2022-08-22T07:45:25.333Z,49088.00
2022-08-22T07:46:24.715Z,59616.00
2022-08-22T07:47:26.147Z,22688.00
2022-08-22T07:48:26.588Z,11684.00
2022-08-22T07:49:26.227Z,11504.00
2022-08-22T07:50:25.464Z,17280.00
2022-08-22T07:51:25.649Z,17248.00
2022-08-22T07:52:25.784Z,8416.00
2022-08-22T07:53:25.930Z,9760.00
2022-08-22T07:54:27.083Z,10032.00
2022-08-22T07:55:26.839Z,6184.00
2022-08-22T07:56:27.337Z,6260.00
2022-08-22T07:57:26.737Z,5868.00
2022-08-22T07:58:26.886Z,5660.00
2022-08-22T07:59:27.080Z,7724.00
2022-08-22T08:00:27.840Z,5880.00
2022-08-22T08:01:27.537Z,7188.00
2022-08-22T08:02:28.346Z,8764.00
2022-08-22T08:03:28.339Z,6676.00
2022-08-22T08:04:28.010Z,6344.00
2022-08-22T08:05:28.347Z,5656.00
2022-08-22T08:06:28.351Z,11092.00
2022-08-22T08:07:28.844Z,10628.00
2022-08-22T08:08:30.342Z,11788.00
2022-08-22T08:09:28.987Z,18816.00
2022-08-22T08:10:29.140Z,15840.00
2022-08-22T08:11:29.252Z,7280.00
2022-08-22T08:12:29.861Z,5180.00
2022-08-22T08:13:29.617Z,5136.00
2022-08-22T08:14:29.754Z,6156.00
2022-08-22T08:15:30.853Z,10040.00
2022-08-22T08:16:30.256Z,24064.00
2022-08-22T08:17:32.394Z,32000.00
2022-08-22T08:18:32.357Z,29632.00
2022-08-22T08:19:31.357Z,36192.00
2022-08-22T08:20:30.829Z,44672.00
2022-08-22T08:21:31.100Z,47680.00
2022-08-22T08:22:31.221Z,46880.00
2022-08-22T08:23:31.340Z,30112.00
2022-08-22T08:24:40.036Z,13592.00
2022-08-22T08:25:32.698Z,7828.00
2022-08-22T08:26:31.945Z,5628.00
2022-08-22T08:28:05.521Z,5908.00
2022-08-22T08:28:32.252Z,7988.00
2022-08-22T08:29:32.366Z,5496.00
2022-08-22T08:30:32.504Z,5660.00
2022-08-22T08:31:32.899Z,6400.00
2022-08-22T08:32:32.901Z,6268.00
2022-08-22T08:33:33.032Z,8716.00
2022-08-22T08:34:34.720Z,6888.00
2022-08-22T08:35:42.168Z,6312.00
2022-08-22T08:36:34.520Z,5860.00
2022-08-22T08:37:33.635Z,5884.00
2022-08-22T08:38:33.910Z,5440.00
2022-08-22T08:39:35.276Z,5384.00
2022-08-22T08:40:35.110Z,5380.00
2022-08-22T08:41:34.351Z,5448.00
2022-08-22T08:42:34.481Z,5528.00
2022-08-22T08:43:34.634Z,5532.00
2022-08-22T08:44:34.801Z,5492.00
2022-08-22T08:45:34.937Z,5480.00
2022-08-22T08:46:35.078Z,5524.00
2022-08-22T08:47:35.305Z,5416.00
2022-08-22T08:48:35.435Z,5448.00
2022-08-22T08:49:35.570Z,5684.00
2022-08-22T08:50:36.395Z,5324.00
2022-08-22T08:51:36.903Z,5312.00
2022-08-22T08:52:36.273Z,6120.00
2022-08-22T08:53:36.416Z,5440.00
2022-08-22T08:54:36.565Z,5324.00
2022-08-22T08:55:37.406Z,5252.00
2022-08-22T08:56:36.890Z,4848.00
2022-08-22T08:58:10.467Z,5240.00
2022-08-22T08:58:38.092Z,5196.00
2022-08-22T09:00:39.445Z,5356.00
2022-08-22T09:01:37.993Z,5684.00
2022-08-22T09:02:40.506Z,6284.00
2022-08-22T09:03:38.298Z,5020.00
2022-08-22T09:04:38.399Z,4796.00
2022-08-22T09:05:39.441Z,6052.00
2022-08-22T09:06:38.780Z,3956.00
2022-08-22T09:07:38.927Z,4708.00
2022-08-22T09:08:39.170Z,4368.00
2022-08-22T09:09:39.938Z,4612.00
2022-08-22T09:10:39.518Z,5556.00
2022-08-22T09:11:39.649Z,8160.00
2022-08-22T09:12:52.258Z,6012.00
2022-08-22T09:13:41.093Z,5692.00
2022-08-22T09:14:40.388Z,4388.00
2022-08-22T09:15:40.505Z,5132.00
2022-08-22T09:16:46.205Z,5736.00
2022-08-22T09:17:42.443Z,7112.00
2022-08-22T09:18:41.077Z,4420.00
2022-08-22T09:19:41.221Z,6688.00
2022-08-22T09:20:41.348Z,4700.00
2022-08-22T09:21:41.488Z,9276.00
2022-08-22T09:22:49.849Z,20064.00
2022-08-22T09:23:43.471Z,18048.00
2022-08-22T09:24:41.958Z,9972.00
2022-08-22T09:25:42.952Z,9268.00
2022-08-22T09:26:42.356Z,11252.00
2022-08-22T09:27:42.962Z,5808.00
2022-08-22T09:28:42.706Z,3940.00
2022-08-22T09:29:51.442Z,4680.00
2022-08-22T09:30:44.948Z,8776.00
2022-08-22T09:31:51.947Z,6952.00
2022-08-22T09:32:44.490Z,2864.00
2022-08-22T09:33:44.448Z,2960.00
2022-08-22T09:34:43.965Z,5428.00
2022-08-22T09:35:44.019Z,4552.00
2022-08-22T09:36:44.165Z,4716.00
2022-08-22T09:37:44.953Z,4048.00
2022-08-22T09:38:47.965Z,3944.00
2022-08-22T09:39:44.734Z,3836.00
2022-08-22T09:40:44.963Z,3944.00
2022-08-22T09:41:45.471Z,4064.00
2022-08-22T09:42:46.436Z,4032.00
2022-08-22T09:43:48.724Z,4020.00
2022-08-22T09:44:45.507Z,4872.00
2022-08-22T09:45:47.120Z,3764.00
2022-08-22T09:46:45.895Z,3196.00
2022-08-22T09:47:46.954Z,2848.00
2022-08-22T09:48:46.209Z,2788.00
2022-08-22T09:49:46.962Z,2716.00
2022-08-22T09:50:46.562Z,2712.00
2022-08-22T09:51:47.460Z,2788.00
2022-08-22T09:52:47.455Z,2952.00
2022-08-22T09:53:46.984Z,3132.00
2022-08-22T09:54:47.103Z,3348.00
2022-08-22T09:55:47.473Z,3444.00
2022-08-22T09:56:47.487Z,3072.00
2022-08-22T09:57:47.667Z,2988.00
2022-08-22T09:59:22.311Z,3692.00
2022-08-22T09:59:48.994Z,2840.00
2022-08-22T10:00:54.736Z,2832.00
2022-08-22T10:01:49.993Z,2780.00
2022-08-22T10:02:53.711Z,2740.00
2022-08-22T10:03:49.751Z,2744.00
2022-08-22T10:04:49.494Z,2712.00
2022-08-22T10:05:49.146Z,2672.00
2022-08-22T10:06:49.303Z,2636.00
2022-08-22T10:07:52.753Z,2688.00
2022-08-22T10:08:49.604Z,2716.00
2022-08-22T10:09:49.742Z,2724.00
2022-08-22T10:10:51.005Z,2816.00
2022-08-22T10:11:50.130Z,3188.00
2022-08-22T10:12:50.999Z,2800.00
2022-08-22T10:13:56.620Z,2768.00
2022-08-22T10:14:51.618Z,2804.00
2022-08-22T10:15:51.009Z,4872.00
2022-08-22T10:16:51.056Z,2812.00
2022-08-22T10:17:51.228Z,5244.00
2022-08-22T10:18:52.819Z,3864.00
2022-08-22T10:19:52.502Z,2496.00
2022-08-22T10:20:51.743Z,2296.00
2022-08-22T10:21:51.982Z,2136.00
2022-08-22T10:22:52.127Z,2136.00
2022-08-22T10:23:52.287Z,2876.00
2022-08-22T10:24:52.420Z,2828.00
2022-08-22T10:25:52.562Z,2848.00
2022-08-22T10:26:53.010Z,2876.00
2022-08-22T10:27:52.907Z,1940.00
2022-08-22T10:29:26.498Z,1860.00
2022-08-22T10:29:54.042Z,1880.00
2022-08-22T10:30:54.045Z,2032.00
2022-08-22T10:31:59.039Z,2384.00
2022-08-22T10:32:54.676Z,2748.00
2022-08-22T10:33:53.803Z,3012.00
2022-08-22T10:34:53.992Z,2740.00
2022-08-22T10:35:55.046Z,2984.00
2022-08-22T10:36:54.572Z,3424.00
2022-08-22T10:37:54.551Z,3936.00
2022-08-22T10:38:54.713Z,1988.00
2022-08-22T10:39:54.934Z,2012.00
2022-08-22T10:40:55.097Z,3160.00
2022-08-22T10:41:55.201Z,3064.00
2022-08-22T10:42:55.372Z,3044.00
2022-08-22T10:44:00.497Z,2864.00
2022-08-22T10:44:56.666Z,3060.00
2022-08-22T10:45:56.547Z,3160.00
2022-08-22T10:46:55.993Z,3140.00
2022-08-22T10:47:56.171Z,2356.00
2022-08-22T10:48:56.573Z,2192.00
2022-08-22T10:49:57.044Z,2164.00
2022-08-22T10:50:57.544Z,2724.00
2022-08-22T10:51:56.849Z,3384.00
2022-08-22T10:52:57.014Z,3420.00
2022-08-22T10:53:57.571Z,3348.00
2022-08-22T10:54:57.292Z,3220.00
2022-08-22T10:55:57.455Z,2556.00
2022-08-22T10:56:58.061Z,3248.00
2022-08-22T10:57:57.776Z,3320.00
2022-08-22T10:58:58.050Z,2380.00
2022-08-22T11:00:31.595Z,3220.00
2022-08-22T11:00:59.107Z,2268.00
2022-08-22T11:01:58.860Z,2208.00
2022-08-22T11:02:59.761Z,2128.00
2022-08-22T11:03:59.598Z,2956.00
2022-08-22T11:04:59.087Z,2304.00
2022-08-22T11:06:00.088Z,1936.00
2022-08-22T11:06:59.339Z,2588.00
2022-08-22T11:08:00.083Z,2840.00
2022-08-22T11:08:59.706Z,2784.00
2022-08-22T11:09:59.922Z,2328.00
2022-08-22T11:11:00.146Z,2828.00
2022-08-22T11:12:00.295Z,2848.00
2022-08-22T11:13:00.737Z,1836.00
2022-08-22T11:14:00.618Z,1892.00
2022-08-22T11:15:00.764Z,1924.00
2022-08-22T11:16:00.997Z,1976.00
2022-08-22T11:17:02.120Z,2020.00
2022-08-22T11:18:02.355Z,2876.00
2022-08-22T11:19:02.748Z,2108.00
2022-08-22T11:20:01.619Z,3108.00
2022-08-22T11:21:02.144Z,2000.00
2022-08-22T11:22:01.934Z,1996.00
2022-08-22T11:23:02.291Z,2008.00
2022-08-22T11:24:03.277Z,2004.00
2022-08-22T11:25:04.643Z,2000.00
2022-08-22T11:26:05.094Z,2016.00
2022-08-22T11:27:02.743Z,2092.00
2022-08-22T11:28:02.989Z,2188.00
2022-08-22T11:29:13.142Z,2212.00
2022-08-22T11:30:44.075Z,2972.00
2022-08-22T11:31:07.328Z,3412.00
2022-08-22T11:32:06.117Z,3468.00
2022-08-22T11:33:04.495Z,3600.00
2022-08-22T11:34:04.629Z,3328.00
2022-08-22T11:35:09.346Z,3188.00
2022-08-22T11:36:04.577Z,3112.00
2022-08-22T11:37:10.990Z,2948.00
2022-08-22T11:38:06.628Z,1932.00
2022-08-22T11:39:05.139Z,1832.00
2022-08-22T11:40:05.697Z,1768.00
2022-08-22T11:41:05.452Z,1752.00
2022-08-22T11:42:06.136Z,1980.00
2022-08-22T11:43:07.353Z,1844.00
2022-08-22T11:44:07.631Z,1852.00
2022-08-22T11:45:06.132Z,1908.00
2022-08-22T11:46:06.635Z,1980.00
2022-08-22T11:47:07.169Z,2056.00
2022-08-22T11:48:06.505Z,3504.00
2022-08-22T11:49:06.631Z,3508.00
2022-08-22T11:50:13.369Z,3464.00
2022-08-22T11:51:13.115Z,3520.00
2022-08-22T11:52:08.483Z,3604.00
2022-08-22T11:53:07.737Z,3656.00
2022-08-22T11:54:07.609Z,3676.00
2022-08-22T11:55:07.750Z,3680.00
2022-08-22T11:56:07.914Z,3656.00
2022-08-22T11:57:08.056Z,3372.00
2022-08-22T11:58:08.241Z,2996.00
2022-08-22T11:59:08.382Z,2356.00
2022-08-22T12:00:08.514Z,2764.00
2022-08-22T12:01:11.791Z,2228.00
2022-08-22T12:02:11.072Z,3288.00
2022-08-22T12:03:09.669Z,3440.00
2022-08-22T12:04:10.190Z,3584.00
2022-08-22T12:05:10.133Z,3624.00
2022-08-22T12:06:09.854Z,3608.00
2022-08-22T12:07:09.979Z,3604.00
2022-08-22T12:08:10.212Z,3480.00
2022-08-22T12:09:10.366Z,3536.00
2022-08-22T12:10:13.768Z,3572.00
2022-08-22T12:11:10.741Z,2168.00
2022-08-22T12:12:11.638Z,2344.00
2022-08-22T12:13:11.668Z,2060.00
2022-08-22T12:14:11.163Z,3680.00
2022-08-22T12:15:11.349Z,2852.00
2022-08-22T12:16:11.494Z,2364.00
2022-08-22T12:17:11.694Z,2196.00
2022-08-22T12:18:15.327Z,2084.00
2022-08-22T12:19:13.032Z,2108.00
2022-08-22T12:20:16.071Z,2072.00
2022-08-22T12:21:13.451Z,2168.00
2022-08-22T12:22:12.560Z,2188.00
2022-08-22T12:23:13.647Z,2292.00
2022-08-22T12:24:20.858Z,2080.00